Darstellungsparameter: Aktuell verwendete Einstellungen:
Skalierung der Graphiken ... ?
xyx+y,   Skalierungsfaktor:      Skalierung: Modus: x, Faktor: 1
Darstellungszeitraum ... ?
Vom - - bis: - -   Zeitraum: 29.10.2008 - 02.11.2008
Min/Max/Avg-Anzeige ... ?
Zeige MMA aktuell
Zeige MMA Monat
Zeige MMA alles
Zeige --A aktuell
Zeige --A Monat
Zeige --A alles
Keine MMA-Anzeige
MMA:
Average (ber die Originaldaten)
MMA-Basis: 17.04.2019 - 19.05.2019
Quicknavigation für Darstellung... ?
Tage:      1T, 2T, 3T, 5T -1T -2T -3T -5T +1T +2T +3T +5T
Wochen: 1W, 2W, 3W -1W -2W -3W +1W +2W +3W
Monate: 1M, 3M, 6M -1M -3M -6M +1M +3M +6M
Jahre:    1J, 3J, 5J, 10J -1J -3J -5J -10J +1J +3J +5J +10J
Nutze für die Darstellung ... ?
Originaldaten oder Mittelwerte auf ...
Stundenbasis Tagesbasis Wochenbasis
Monatsbasis Jahresbasis      Datenbasis: Original-Daten
Darstellen als:
Statistik (Auto) Statistik J:M      Darstellung:
Zur Graphik,    zurück zur Übersicht aller Sensoren.
 
Tabellarische Datenbersicht: ?
 
Sensor: Nr:Datum:Temp:Abs-Feuchte:Windchill:Wind:
Aussen-T/F 1 29-10-2008 00:06:11 3.2 C 5.42 g/m*3 3.2 C 0 km/h
2 29-10-2008 00:31:11 3.1 C 5.39 g/m*3 3.1 C 0 km/h
3 29-10-2008 00:56:11 2.8 C 5.34 g/m*3 2.8 C 0 km/h
4 29-10-2008 01:21:11 2.8 C 5.4 g/m*3 2.8 C 0 km/h
5 29-10-2008 01:46:11 2.9 C 5.43 g/m*3 2.9 C 0 km/h
6 29-10-2008 02:11:11 3 C 5.47 g/m*3 3 C 0 km/h
7 29-10-2008 02:36:11 2.9 C 5.49 g/m*3 2.9 C 0 km/h
8 29-10-2008 03:01:11 3.1 C 5.51 g/m*3 3.1 C 0 km/h
9 29-10-2008 03:26:11 3.4 C 5.68 g/m*3 3.4 C 0 km/h
10 29-10-2008 03:51:11 3.6 C 5.76 g/m*3 3.6 C 0 km/h
11 29-10-2008 04:16:11 3.6 C 5.69 g/m*3 3.6 C 0 km/h
12 29-10-2008 04:41:11 3.4 C 5.62 g/m*3 3.4 C 0 km/h
13 29-10-2008 05:06:11 3.5 C 5.66 g/m*3 3.5 C 0 km/h
14 29-10-2008 05:31:11 3.7 C 5.73 g/m*3 3.7 C 0 km/h
15 29-10-2008 05:56:11 3.7 C 5.73 g/m*3 3.7 C 0 km/h
16 29-10-2008 06:21:11 3.7 C 5.73 g/m*3 3.7 C 0 km/h
17 29-10-2008 06:46:12 3.7 C 5.67 g/m*3 3.7 C 0 km/h
18 29-10-2008 07:11:12 3.7 C 5.67 g/m*3 3.7 C 0 km/h
19 29-10-2008 07:36:12 3.6 C 5.63 g/m*3 3.6 C 0 km/h
20 29-10-2008 08:01:12 3.6 C 5.63 g/m*3 3.6 C 0 km/h
21 29-10-2008 08:26:12 3.9 C 5.75 g/m*3 3.9 C 0 km/h
22 29-10-2008 08:51:12 3.9 C 5.68 g/m*3 3.9 C 0 km/h
23 29-10-2008 09:16:12 4.4 C 5.75 g/m*3 4.4 C 0 km/h
24 29-10-2008 09:41:12 4.6 C 5.69 g/m*3 4.6 C 0 km/h
25 29-10-2008 10:06:12 5 C 5.57 g/m*3 5 C 0 km/h
Sensor: Nr:Datum:Temp:Abs-Feuchte:Windchill:Wind:
Aussen-T/F 26 29-10-2008 10:31:12 5.6 C 5.66 g/m*3 5.6 C 0 km/h
27 29-10-2008 10:56:12 5.6 C 5.59 g/m*3 5.6 C 0 km/h
28 29-10-2008 11:21:12 6.5 C 5.77 g/m*3 6.5 C 0 km/h
29 29-10-2008 11:46:12 7.2 C 5.65 g/m*3 7.2 C 0 km/h
30 29-10-2008 12:11:12 7.1 C 5.54 g/m*3 7.1 C 0 km/h
31 29-10-2008 12:36:12 7.5 C 5.76 g/m*3 7.5 C 0 km/h
32 29-10-2008 13:01:12 8 C 5.37 g/m*3 8 C 0 km/h
33 29-10-2008 13:26:12 8.4 C 5.51 g/m*3 8.4 C 0 km/h
34 29-10-2008 13:51:12 9.2 C 5.63 g/m*3 9.2 C 0 km/h
35 29-10-2008 14:16:12 9.1 C 5.41 g/m*3 9.1 C 0 km/h
36 29-10-2008 14:41:12 10.2 C 5.42 g/m*3 10.2 C 0 km/h
37 29-10-2008 15:06:13 10.7 C 5.11 g/m*3 10.7 C 0 km/h
38 29-10-2008 15:31:13 9.8 C 5.1 g/m*3 9.8 C 0 km/h
39 29-10-2008 15:56:13 9.4 C 5.34 g/m*3 9.4 C 0 km/h
40 29-10-2008 16:21:13 8.4 C 5.34 g/m*3 8.4 C 0 km/h
41 29-10-2008 16:46:13 7.9 C 5.5 g/m*3 7.9 C 0 km/h
42 29-10-2008 17:11:13 7.1 C 5.38 g/m*3 7.1 C 0 km/h
43 29-10-2008 17:36:13 6.7 C 5.47 g/m*3 6.7 C 0 km/h
44 29-10-2008 18:01:13 6.4 C 5.59 g/m*3 6.4 C 0 km/h
45 29-10-2008 18:26:13 6.2 C 5.52 g/m*3 6.2 C 0 km/h
46 29-10-2008 18:51:13 6 C 5.52 g/m*3 6 C 0 km/h
47 29-10-2008 19:16:13 5.9 C 5.62 g/m*3 5.9 C 0 km/h
48 29-10-2008 19:41:13 5.9 C 5.7 g/m*3 5.9 C 0 km/h
49 29-10-2008 20:06:13 5.8 C 5.66 g/m*3 5.8 C 0 km/h
50 29-10-2008 20:31:13 5.4 C 5.58 g/m*3 5.4 C 0 km/h
Sensor: Nr:Datum:Temp:Abs-Feuchte:Windchill:Wind:
Aussen-T/F 51 29-10-2008 20:56:13 5.1 C 5.54 g/m*3 5.1 C 0 km/h
52 29-10-2008 21:21:13 5.3 C 5.54 g/m*3 5.3 C 0 km/h
53 29-10-2008 21:46:13 5.1 C 5.47 g/m*3 5.1 C 0 km/h
54 29-10-2008 22:11:13 5.2 C 5.51 g/m*3 5.2 C 0 km/h
55 29-10-2008 22:36:13 5.2 C 5.58 g/m*3 5.2 C 0 km/h
56 29-10-2008 23:01:13 5.2 C 5.65 g/m*3 5.2 C 0 km/h
57 29-10-2008 23:26:13 5.2 C 5.65 g/m*3 5.2 C 0 km/h
58 29-10-2008 23:51:14 5 C 5.64 g/m*3 5 C 0 km/h
59 30-10-2008 00:16:14 5 C 5.71 g/m*3 5 C 0 km/h
60 30-10-2008 00:41:14 4.9 C 5.74 g/m*3 4.9 C 0 km/h
61 30-10-2008 01:06:14 4.7 C 5.73 g/m*3 4.7 C 0 km/h
62 30-10-2008 01:31:14 4.8 C 5.83 g/m*3 4.8 C 0 km/h
63 30-10-2008 01:56:14 4.8 C 5.83 g/m*3 4.8 C 0 km/h
64 30-10-2008 02:21:14 5 C 5.84 g/m*3 5 C 0 km/h
65 30-10-2008 02:46:14 4.8 C 5.83 g/m*3 4.8 C 0 km/h
66 30-10-2008 03:11:14 4.8 C 5.9 g/m*3 4.8 C 0 km/h
67 30-10-2008 03:36:14 4.7 C 5.93 g/m*3 4.7 C 0 km/h
68 30-10-2008 04:01:14 4.7 C 6 g/m*3 4.7 C 0 km/h
69 30-10-2008 04:26:14 4.5 C 5.98 g/m*3 4.5 C 0 km/h
70 30-10-2008 04:51:14 4.5 C 5.98 g/m*3 4.5 C 0 km/h
71 30-10-2008 05:16:14 4.5 C 6.05 g/m*3 4.5 C 0 km/h
72 30-10-2008 05:41:14 4.5 C 6.05 g/m*3 4.5 C 0 km/h
73 30-10-2008 06:06:14 4.2 C 5.93 g/m*3 4.2 C 0 km/h
74 30-10-2008 06:31:14 4.2 C 5.93 g/m*3 4.2 C 0 km/h
75 30-10-2008 06:56:14 4.1 C 5.89 g/m*3 4.1 C 0 km/h
Sensor: Nr:Datum:Temp:Abs-Feuchte:Windchill:Wind:
Aussen-T/F 76 30-10-2008 07:21:14 3.9 C 5.87 g/m*3 3.9 C 0 km/h
77 30-10-2008 07:46:14 3.9 C 5.94 g/m*3 3.9 C 0 km/h
78 30-10-2008 08:11:15 4 C 5.98 g/m*3 4 C 0 km/h
79 30-10-2008 08:36:15 4.2 C 6.06 g/m*3 4.2 C 0 km/h
80 30-10-2008 09:01:15 4.6 C 6.22 g/m*3 4.6 C 0 km/h
81 30-10-2008 09:26:15 4.8 C 6.3 g/m*3 4.8 C 0 km/h
82 30-10-2008 09:51:15 4.8 C 6.24 g/m*3 4.8 C 0 km/h
83 30-10-2008 10:16:15 4.7 C 6 g/m*3 4.7 C 0 km/h
84 30-10-2008 10:41:15 4.7 C 5.93 g/m*3 4.7 C 0 km/h
85 30-10-2008 11:06:15 5.1 C 6.02 g/m*3 5.1 C 0 km/h
86 30-10-2008 11:31:15 5.3 C 6.1 g/m*3 5.3 C 0 km/h
87 30-10-2008 11:56:15 5.8 C 6.23 g/m*3 5.8 C 0 km/h
88 30-10-2008 12:21:15 5.7 C 6.05 g/m*3 5.7 C 0 km/h
89 30-10-2008 12:46:15 5.6 C 6.08 g/m*3 5.6 C 0 km/h
90 30-10-2008 13:11:15 5.7 C 6.12 g/m*3 5.7 C 0 km/h
91 30-10-2008 13:36:15 5.3 C 5.82 g/m*3 5.3 C 0 km/h
92 30-10-2008 14:01:15 5.7 C 6.05 g/m*3 5.7 C 0 km/h
93 30-10-2008 14:26:15 5.6 C 6.08 g/m*3 5.6 C 0 km/h
94 30-10-2008 14:51:15 5.4 C 6 g/m*3 5.4 C 0 km/h
95 30-10-2008 15:16:15 5.8 C 6.16 g/m*3 5.8 C 0 km/h
96 30-10-2008 15:41:15 5.7 C 6.05 g/m*3 5.7 C 0 km/h
97 30-10-2008 16:06:15 5.7 C 6.12 g/m*3 5.7 C 0 km/h
98 30-10-2008 16:31:15 5.7 C 6.19 g/m*3 5.7 C 0 km/h
99 30-10-2008 16:56:16 5.4 C 6.07 g/m*3 5.4 C 0 km/h
100 30-10-2008 17:21:16 4.8 C 5.9 g/m*3 4.8 C 0 km/h
Sensor: Nr:Datum:Temp:Abs-Feuchte:Windchill:Wind:
Aussen-T/F 101 30-10-2008 17:46:16 4.7 C 5.86 g/m*3 4.7 C 0 km/h
102 30-10-2008 18:11:16 4.8 C 5.97 g/m*3 4.8 C 0 km/h
103 30-10-2008 18:36:16 4.6 C 5.89 g/m*3 4.6 C 0 km/h
104 30-10-2008 19:01:16 4.6 C 6.02 g/m*3 4.6 C 0 km/h
105 30-10-2008 19:26:16 4.6 C 6.02 g/m*3 4.6 C 0 km/h
106 30-10-2008 19:51:16 4.6 C 6.09 g/m*3 4.6 C 0 km/h
107 30-10-2008 20:16:16 4.4 C 6.01 g/m*3 4.4 C 0 km/h
108 30-10-2008 20:41:16 4.5 C 6.11 g/m*3 4.5 C 0 km/h
109 30-10-2008 21:06:16 4.4 C 6.07 g/m*3 4.4 C 0 km/h
110 30-10-2008 21:31:16 4.3 C 6.03 g/m*3 4.3 C 0 km/h
111 30-10-2008 21:56:16 4.3 C 6.03 g/m*3 4.3 C 0 km/h
112 30-10-2008 22:21:16 4.3 C 6.1 g/m*3 4.3 C 0 km/h
113 30-10-2008 22:46:16 4.3 C 6.1 g/m*3 4.3 C 0 km/h
114 30-10-2008 23:11:16 4.1 C 6.02 g/m*3 4.1 C 0 km/h
115 30-10-2008 23:36:16 3.9 C 5.94 g/m*3 3.9 C 0 km/h
116 31-10-2008 00:01:16 3.8 C 5.96 g/m*3 3.8 C 0 km/h
117 31-10-2008 00:26:16 3.7 C 5.92 g/m*3 3.7 C 0 km/h
118 31-10-2008 00:51:16 3.4 C 5.8 g/m*3 3.4 C 0 km/h
119 31-10-2008 01:16:16 3.2 C 5.72 g/m*3 3.2 C 0 km/h
120 31-10-2008 01:41:17 2.8 C 5.57 g/m*3 2.8 C 0 km/h
121 31-10-2008 02:06:17 2.7 C 5.54 g/m*3 2.7 C 0 km/h
122 31-10-2008 02:31:17 2.9 C 5.61 g/m*3 2.9 C 0 km/h
123 31-10-2008 02:56:17 3.2 C 5.72 g/m*3 3.2 C 0 km/h
124 31-10-2008 03:21:17 3.1 C 5.69 g/m*3 3.1 C 0 km/h
125 31-10-2008 03:46:17 3 C 5.65 g/m*3 3 C 0 km/h
Sensor: Nr:Datum:Temp:Abs-Feuchte:Windchill:Wind:
Aussen-T/F 126 31-10-2008 04:11:17 3.1 C 5.69 g/m*3 3.1 C 0 km/h
127 31-10-2008 04:36:17 3.2 C 5.72 g/m*3 3.2 C 0 km/h
128 31-10-2008 05:01:17 3.3 C 5.76 g/m*3 3.3 C 0 km/h
129 31-10-2008 05:26:17 3.6 C 5.88 g/m*3 3.6 C 0 km/h
130 31-10-2008 05:51:17 3.7 C 5.92 g/m*3 3.7 C 0 km/h
131 31-10-2008 06:16:17 3.8 C 5.96 g/m*3 3.8 C 0 km/h
132 31-10-2008 06:41:17 4 C 6.04 g/m*3 4 C 0 km/h
133 31-10-2008 07:06:17 4 C 6.04 g/m*3 4 C 0 km/h
134 31-10-2008 07:31:17 4 C 6.04 g/m*3 4 C 0 km/h
135 31-10-2008 07:56:17 4.1 C 6.08 g/m*3 4.1 C 0 km/h
136 31-10-2008 08:21:17 4.3 C 6.16 g/m*3 4.3 C 0 km/h
137 31-10-2008 08:46:17 4.5 C 6.24 g/m*3 4.5 C 0 km/h
138 31-10-2008 09:11:17 4.9 C 6.41 g/m*3 4.9 C 0 km/h
139 31-10-2008 09:36:17 5.4 C 6.63 g/m*3 5.4 C 0 km/h
140 31-10-2008 10:01:17 5.8 C 6.81 g/m*3 5.8 C 0 km/h
141 31-10-2008 10:26:18 6.3 C 6.74 g/m*3 6.3 C 0 km/h
142 31-10-2008 10:51:18 6.5 C 6.6 g/m*3 6.5 C 0 km/h
143 31-10-2008 11:16:18 7.1 C 6.55 g/m*3 7.1 C 0 km/h
144 31-10-2008 11:41:18 7 C 6.51 g/m*3 7 C 0 km/h
145 31-10-2008 12:06:18 7 C 6.66 g/m*3 7 C 0 km/h
146 31-10-2008 12:31:18 7.8 C 7.02 g/m*3 7.8 C 0 km/h
147 31-10-2008 12:56:18 8 C 6.7 g/m*3 8 C 0 km/h
148 31-10-2008 13:21:18 8 C 6.7 g/m*3 8 C 0 km/h
149 31-10-2008 13:46:18 8.8 C 6.7 g/m*3 8.8 C 0 km/h
150 31-10-2008 14:11:18 9.5 C 6.74 g/m*3 9.5 C 0 km/h
Sensor: Nr:Datum:Temp:Abs-Feuchte:Windchill:Wind:
Aussen-T/F 151 31-10-2008 14:36:18 10 C 6.77 g/m*3 10 C 0 km/h
152 31-10-2008 15:01:18 11.2 C 6.99 g/m*3 11.2 C 0 km/h
153 31-10-2008 15:26:18 11.1 C 6.35 g/m*3 11.1 C 0 km/h
154 31-10-2008 15:51:18 10.2 C 6.38 g/m*3 10.2 C 0 km/h
155 31-10-2008 16:16:18 9.6 C 6.5 g/m*3 9.6 C 0 km/h
156 31-10-2008 16:41:18 8.9 C 6.48 g/m*3 8.9 C 0 km/h
157 31-10-2008 17:06:18 8.4 C 6.53 g/m*3 8.4 C 0 km/h
158 31-10-2008 17:31:18 8.1 C 6.32 g/m*3 8.1 C 0 km/h
159 31-10-2008 17:56:18 7.9 C 6.32 g/m*3 7.9 C 0 km/h
160 31-10-2008 18:21:18 7.3 C 6.32 g/m*3 7.3 C 0 km/h
161 31-10-2008 18:46:19 6.8 C 6.42 g/m*3 6.8 C 0 km/h
162 31-10-2008 19:11:19 7 C 6.51 g/m*3 7 C 0 km/h
163 31-10-2008 19:36:19 6.8 C 6.5 g/m*3 6.8 C 0 km/h
164 31-10-2008 20:01:19 6.7 C 6.53 g/m*3 6.7 C 0 km/h
165 31-10-2008 20:26:19 6.5 C 6.52 g/m*3 6.5 C 0 km/h
166 31-10-2008 20:51:19 6.4 C 6.56 g/m*3 6.4 C 0 km/h
167 31-10-2008 21:16:19 6.2 C 6.47 g/m*3 6.2 C 0 km/h
168 31-10-2008 21:41:19 6.2 C 6.55 g/m*3 6.2 C 0 km/h
169 31-10-2008 22:06:19 6.2 C 6.55 g/m*3 6.2 C 0 km/h
170 31-10-2008 22:31:19 6.2 C 6.55 g/m*3 6.2 C 0 km/h
171 31-10-2008 22:56:19 6.3 C 6.66 g/m*3 6.3 C 0 km/h
172 31-10-2008 23:21:19 6.5 C 6.75 g/m*3 6.5 C 0 km/h
173 31-10-2008 23:46:19 6.5 C 6.67 g/m*3 6.5 C 0 km/h
174 01-11-2008 00:11:19 6.4 C 6.63 g/m*3 6.4 C 0 km/h
175 01-11-2008 00:36:19 6.3 C 6.66 g/m*3 6.3 C 0 km/h
Sensor: Nr:Datum:Temp:Abs-Feuchte:Windchill:Wind:
Aussen-T/F 176 01-11-2008 01:01:19 6.4 C 6.71 g/m*3 6.4 C 0 km/h
177 01-11-2008 01:26:19 6.4 C 6.78 g/m*3 6.4 C 0 km/h
178 01-11-2008 01:51:19 6.4 C 6.85 g/m*3 6.4 C 0 km/h
179 01-11-2008 02:16:19 6.3 C 6.81 g/m*3 6.3 C 0 km/h
180 01-11-2008 02:41:19 6.2 C 6.84 g/m*3 6.2 C 0 km/h
181 01-11-2008 03:06:19 6.2 C 6.91 g/m*3 6.2 C 0 km/h
182 01-11-2008 03:31:20 6 C 6.82 g/m*3 6 C 0 km/h
183 01-11-2008 03:56:20 5.9 C 6.85 g/m*3 5.9 C 0 km/h
184 01-11-2008 04:21:20 6 C 6.9 g/m*3 6 C 0 km/h
185 01-11-2008 04:46:20 5.9 C 6.85 g/m*3 5.9 C 0 km/h
186 01-11-2008 05:11:20 6 C 6.9 g/m*3 6 C 0 km/h
187 01-11-2008 05:36:20 6 C 6.9 g/m*3 6 C 0 km/h
188 01-11-2008 06:01:20 5.9 C 6.85 g/m*3 5.9 C 0 km/h
189 01-11-2008 06:26:20 5.9 C 6.85 g/m*3 5.9 C 0 km/h
190 01-11-2008 06:51:20 5.7 C 6.76 g/m*3 5.7 C 0 km/h
191 01-11-2008 07:16:20 5.5 C 6.67 g/m*3 5.5 C 0 km/h
192 01-11-2008 07:41:20 5.3 C 6.58 g/m*3 5.3 C 0 km/h
193 01-11-2008 08:06:20 5.6 C 6.72 g/m*3 5.6 C 0 km/h
194 01-11-2008 08:31:20 5.9 C 6.85 g/m*3 5.9 C 0 km/h
195 01-11-2008 08:56:20 6.5 C 7.12 g/m*3 6.5 C 0 km/h
196 01-11-2008 09:21:20 7.1 C 7.41 g/m*3 7.1 C 0 km/h
197 01-11-2008 09:46:20 7.4 C 7.55 g/m*3 7.4 C 0 km/h
198 01-11-2008 10:11:20 7.9 C 7.56 g/m*3 7.9 C 0 km/h
199 01-11-2008 10:36:20 8.2 C 7.2 g/m*3 8.2 C 0 km/h
200 01-11-2008 11:01:20 8.5 C 7.09 g/m*3 8.5 C 0 km/h
Sensor: Nr:Datum:Temp:Abs-Feuchte:Windchill:Wind:
Aussen-T/F 201 01-11-2008 11:26:20 8.7 C 7.01 g/m*3 8.7 C 0 km/h
202 01-11-2008 11:51:20 9.3 C 6.74 g/m*3 9.3 C 0 km/h
203 01-11-2008 12:16:21 9.6 C 6.78 g/m*3 9.6 C 0 km/h
204 01-11-2008 12:41:21 10 C 6.58 g/m*3 10 C 0 km/h
205 01-11-2008 13:06:21 10 C 6.58 g/m*3 10 C 0 km/h
206 01-11-2008 13:31:21 10.3 C 6.7 g/m*3 10.3 C 0 km/h
207 01-11-2008 13:56:21 10.3 C 6.8 g/m*3 10.3 C 0 km/h
208 01-11-2008 14:21:21 10.4 C 6.84 g/m*3 10.4 C 0 km/h
209 01-11-2008 14:46:21 10.5 C 6.89 g/m*3 10.5 C 0 km/h
210 01-11-2008 15:11:21 10.8 C 6.92 g/m*3 10.8 C 0 km/h
211 01-11-2008 15:36:21 10.5 C 7.18 g/m*3 10.5 C 0 km/h
212 01-11-2008 16:01:21 10.1 C 7.28 g/m*3 10.1 C 0 km/h
213 01-11-2008 16:26:21 9.8 C 7.52 g/m*3 9.8 C 0 km/h
214 01-11-2008 16:51:21 9.5 C 7.55 g/m*3 9.5 C 0 km/h
215 01-11-2008 17:16:21 9.4 C 7.6 g/m*3 9.4 C 0 km/h
216 01-11-2008 17:41:21 9.5 C 7.74 g/m*3 9.5 C 0 km/h
217 01-11-2008 18:06:21 9.4 C 7.69 g/m*3 9.4 C 0 km/h
218 01-11-2008 18:31:21 9.2 C 7.59 g/m*3 9.2 C 0 km/h
219 01-11-2008 18:56:21 9.2 C 7.68 g/m*3 9.2 C 0 km/h
220 01-11-2008 19:21:21 9.2 C 7.68 g/m*3 9.2 C 0 km/h
221 01-11-2008 19:46:21 9.2 C 7.68 g/m*3 9.2 C 0 km/h
222 01-11-2008 20:11:21 9 C 7.41 g/m*3 9 C 0 km/h
223 01-11-2008 20:36:22 8.9 C 7.53 g/m*3 8.9 C 0 km/h
224 01-11-2008 21:01:22 8.7 C 7.52 g/m*3 8.7 C 0 km/h
225 01-11-2008 21:26:22 8.4 C 7.38 g/m*3 8.4 C 0 km/h
Sensor: Nr:Datum:Temp:Abs-Feuchte:Windchill:Wind:
Aussen-T/F 226 01-11-2008 21:51:22 8.3 C 7.42 g/m*3 8.3 C 0 km/h
227 01-11-2008 22:16:22 8.6 C 7.65 g/m*3 8.6 C 0 km/h
228 01-11-2008 22:41:22 8.6 C 7.73 g/m*3 8.6 C 0 km/h
229 01-11-2008 23:06:22 8.5 C 7.68 g/m*3 8.5 C 0 km/h
230 01-11-2008 23:31:22 8.4 C 7.63 g/m*3 8.4 C 0 km/h
231 01-11-2008 23:56:22 8.4 C 7.72 g/m*3 8.4 C 0 km/h
232 02-11-2008 00:21:22 8.5 C 7.77 g/m*3 8.5 C 0 km/h
233 02-11-2008 00:46:22 8.5 C 7.85 g/m*3 8.5 C 0 km/h
234 02-11-2008 01:11:22 9.6 C 7.79 g/m*3 9.6 C 0 km/h
235 02-11-2008 01:36:22 9.8 C 7.42 g/m*3 9.8 C 0 km/h
236 02-11-2008 02:01:22 9.3 C 7.46 g/m*3 9.3 C 0 km/h
237 02-11-2008 02:26:22 9.4 C 7.51 g/m*3 9.4 C 0 km/h
238 02-11-2008 02:51:22 9 C 7.41 g/m*3 9 C 0 km/h
239 02-11-2008 03:16:22 8.9 C 7.53 g/m*3 8.9 C 0 km/h
240 02-11-2008 03:41:22 8.5 C 7.43 g/m*3 8.5 C 0 km/h
241 02-11-2008 04:06:22 8.3 C 7.5 g/m*3 8.3 C 0 km/h
242 02-11-2008 04:31:22 8.1 C 7.49 g/m*3 8.1 C 0 km/h
243 02-11-2008 04:56:22 7.9 C 7.47 g/m*3 7.9 C 0 km/h
244 02-11-2008 05:21:23 7.6 C 7.41 g/m*3 7.6 C 0 km/h
245 02-11-2008 05:46:23 7.6 C 7.41 g/m*3 7.6 C 0 km/h
246 02-11-2008 06:11:23 7.4 C 7.4 g/m*3 7.4 C 0 km/h
247 02-11-2008 06:36:23 7.5 C 7.52 g/m*3 7.5 C 0 km/h
248 02-11-2008 07:01:23 7.4 C 7.48 g/m*3 7.4 C 0 km/h
249 02-11-2008 07:26:23 7.3 C 7.43 g/m*3 7.3 C 0 km/h
250 02-11-2008 07:51:23 7.1 C 7.33 g/m*3 7.1 C 0 km/h
Sensor: Nr:Datum:Temp:Abs-Feuchte:Windchill:Wind:
Aussen-T/F 251 02-11-2008 08:16:23 7.3 C 7.43 g/m*3 7.3 C 0 km/h
252 02-11-2008 08:41:23 7.6 C 7.65 g/m*3 7.6 C 0 km/h
253 02-11-2008 09:06:23 7.6 C 7.65 g/m*3 7.6 C 0 km/h
254 02-11-2008 09:31:23 8.1 C 7.82 g/m*3 8.1 C 0 km/h
255 02-11-2008 09:56:23 8.7 C 8.13 g/m*3 8.7 C 0 km/h
256 02-11-2008 10:21:23 9.5 C 8.47 g/m*3 9.5 C 0 km/h
257 02-11-2008 10:46:23 10.1 C 8.42 g/m*3 10.1 C 0 km/h
258 02-11-2008 11:11:23 10.8 C 8.2 g/m*3 10.8 C 0 km/h
259 02-11-2008 11:36:23 11.5 C 8.06 g/m*3 11.5 C 0 km/h
260 02-11-2008 12:01:23 12.5 C 8.25 g/m*3 12.5 C 0 km/h
261 02-11-2008 12:26:23 13.4 C 8.02 g/m*3 13.4 C 0 km/h
262 02-11-2008 12:51:23 13.5 C 7.84 g/m*3 13.5 C 0 km/h
263 02-11-2008 13:16:23 13.8 C 7.74 g/m*3 13.8 C 0 km/h
264 02-11-2008 13:41:24 14.1 C 7.89 g/m*3 14.1 C 0 km/h
265 02-11-2008 14:06:24 15.4 C 7.88 g/m*3 15.4 C 0 km/h
266 02-11-2008 14:31:24 14.8 C 7.73 g/m*3 14.8 C 0 km/h
267 02-11-2008 14:56:24 14.4 C 7.91 g/m*3 14.4 C 0 km/h
268 02-11-2008 15:21:24 14.4 C 7.91 g/m*3 14.4 C 0 km/h
269 02-11-2008 15:46:24 13.8 C 8.1 g/m*3 13.8 C 0 km/h
270 02-11-2008 16:11:24 13.5 C 8.19 g/m*3 13.5 C 0 km/h
271 02-11-2008 16:36:24 12.6 C 8.19 g/m*3 12.6 C 0 km/h
272 02-11-2008 17:01:24 11.8 C 8.1 g/m*3 11.8 C 0 km/h
273 02-11-2008 17:26:24 11.2 C 8.01 g/m*3 11.2 C 0 km/h
274 02-11-2008 17:51:24 10.6 C 8 g/m*3 10.6 C 0 km/h
275 02-11-2008 18:16:24 10.7 C 8.15 g/m*3 10.7 C 0 km/h
Sensor: Nr:Datum:Temp:Abs-Feuchte:Windchill:Wind:
Aussen-T/F 276 02-11-2008 18:41:24 10.1 C 7.85 g/m*3 10.1 C 0 km/h
277 02-11-2008 19:06:24 9.9 C 7.94 g/m*3 9.9 C 0 km/h
278 02-11-2008 19:31:24 9.8 C 7.89 g/m*3 9.8 C 0 km/h
279 02-11-2008 19:56:24 9.6 C 7.88 g/m*3 9.6 C 0 km/h
280 02-11-2008 20:21:24 9.4 C 7.87 g/m*3 9.4 C 0 km/h
281 02-11-2008 20:46:24 9.2 C 7.86 g/m*3 9.2 C 0 km/h
282 02-11-2008 21:11:24 9.1 C 7.81 g/m*3 9.1 C 0 km/h
283 02-11-2008 21:36:24 9.1 C 7.9 g/m*3 9.1 C 0 km/h
284 02-11-2008 22:01:24 9.2 C 7.95 g/m*3 9.2 C 0 km/h
285 02-11-2008 22:26:25 9 C 7.85 g/m*3 9 C 0 km/h
286 02-11-2008 22:51:25 8.7 C 7.7 g/m*3 8.7 C 0 km/h
287 02-11-2008 23:16:25 8.6 C 7.73 g/m*3 8.6 C 0 km/h
288 02-11-2008 23:41:25 8.2 C 7.62 g/m*3 8.2 C 0 km/h

Legende:
   Min
   Max


Maximal/Minimal-Werte vom 17.04.2019 - 19.05.2019

Sensor Min Max Avg
Temp
(Aussen-T/F)
2.2 °C
13-05-2019  06:50:00
26.6 °C
24-04-2019  17:05:00
11.51 °C

Die Daten stammen von einer Davis Vantage Pro 2 Wetter-Station und werden unter Linux mit der Software wview2wettercgi und aufbereitet. Alle Angaben erfolgen ohne Gewähr für ihre Vollständigkeit oder Richtigkeit.
Kontakt: Rainer Krienke krienke@uni-koblenz.de . Meine Webseiten an der Uni Koblenz oder privat.
Version: $Revision: 0.78 $